Time;durP1;ratioP1;P1;durP2;ratioP2;P2;SDS_P1;SDS_P2;PMS_P1;PMS_P2;Temp;Humidity;BMP_temperature;BMP_pressure;BME280_temperature;BME280_humidity;BME280_pressure;Samples;Min_cycle;Max_cycle;Signal;HPM_P1;HPM_P2
2022/04/28 00:00:26;;;;;;;15.93;11.57;;;;;;;11.31;100.00;96016.50;5093442;28;20285;-61
2022/04/28 00:02:52;;;;;;;16.37;11.57;;;;;;;11.40;100.00;96016.88;5093566;28;20177;-61
2022/04/28 00:05:17;;;;;;;15.10;11.57;;;;;;;11.39;100.00;96012.56;5094082;28;20208;-61
2022/04/28 00:07:43;;;;;;;15.17;12.37;;;;;;;11.37;100.00;96014.94;5093454;28;20190;-61
2022/04/28 00:10:10;;;;;;;15.33;11.53;;;;;;;11.37;100.00;96009.47;5094059;28;20194;-58
2022/04/28 00:12:36;;;;;;;15.10;11.93;;;;;;;11.28;100.00;96011.78;5093293;28;20209;-61
2022/04/28 00:15:02;;;;;;;15.53;11.53;;;;;;;11.31;100.00;96005.56;5093091;28;20182;-61
2022/04/28 00:17:28;;;;;;;15.40;11.20;;;;;;;11.31;100.00;96000.09;5093311;28;20193;-61
2022/04/28 00:19:54;;;;;;;15.40;11.77;;;;;;;11.31;100.00;96005.56;5093263;28;20264;-61
2022/04/28 00:22:19;;;;;;;14.37;11.90;;;;;;;11.23;100.00;95999.31;5093189;28;20281;-62
2022/04/28 00:24:45;;;;;;;14.77;11.60;;;;;;;11.21;100.00;96006.34;5093006;28;20221;-61
2022/04/28 00:27:10;;;;;;;18.97;11.77;;;;;;;11.19;100.00;95998.56;5093306;28;20220;-59
2022/04/28 00:29:36;;;;;;;40.27;31.70;;;;;;;11.04;100.00;96002.44;5093280;28;20383;-59
2022/04/28 00:32:02;;;;;;;22.90;17.83;;;;;;;11.06;100.00;96004.78;5092863;28;20193;-61
2022/04/28 00:34:27;;;;;;;25.77;18.43;;;;;;;11.03;100.00;96000.88;5093264;28;20189;-61
2022/04/28 00:36:53;;;;;;;17.50;13.70;;;;;;;11.07;100.00;95992.69;5093059;28;20190;-60
2022/04/28 00:39:18;;;;;;;15.40;12.80;;;;;;;10.90;100.00;95996.19;5092884;28;20190;-61
2022/04/28 00:41:44;;;;;;;17.77;13.43;;;;;;;10.97;100.00;96001.66;5092904;28;20194;-61
2022/04/28 00:44:11;;;;;;;21.43;15.57;;;;;;;11.06;100.00;95999.31;5092314;28;20251;-61
2022/04/28 00:46:37;;;;;;;20.30;15.50;;;;;;;11.12;100.00;96001.28;5092503;28;20206;-62
2022/04/28 00:51:47;;;;;;;20.90;15.10;;;;;;;11.08;100.00;96007.91;5094602;28;20338;-58
2022/04/28 00:54:13;;;;;;;23.93;17.50;;;;;;;11.02;100.00;96004.00;5092860;28;20181;-59
2022/04/28 00:56:39;;;;;;;26.30;17.90;;;;;;;11.08;100.00;96002.44;5092678;28;20247;-58
2022/04/28 00:59:06;;;;;;;23.30;15.90;;;;;;;11.03;100.00;96000.13;5092620;28;20205;-58
2022/04/28 01:01:32;;;;;;;21.20;15.50;;;;;;;11.07;100.00;96003.63;5092501;28;20201;-59
2022/04/28 01:03:59;;;;;;;15.77;12.33;;;;;;;11.00;100.00;96003.63;5092858;28;20196;-57
2022/04/28 01:06:24;;;;;;;15.77;12.50;;;;;;;10.97;100.00;96001.66;5093522;28;20316;-62
2022/04/28 01:08:50;;;;;;;17.10;12.33;;;;;;;10.92;100.00;95999.34;5093004;28;20268;-57
2022/04/28 01:11:18;;;;;;;18.07;12.23;;;;;;;10.94;100.00;96003.25;5092855;28;20282;-57
2022/04/28 01:13:44;;;;;;;17.40;12.13;;;;;;;10.84;100.00;96000.47;5092679;28;20181;-57
2022/04/28 01:16:09;;;;;;;16.37;11.97;;;;;;;10.76;100.00;96007.13;5092923;28;20185;-57
2022/04/28 01:18:35;;;;;;;15.10;11.60;;;;;;;10.87;100.00;96002.44;5092966;28;20192;-57
2022/04/28 01:21:05;;;;;;;15.07;12.03;;;;;;;10.84;100.00;96003.22;5092507;28;20186;-57
2022/04/28 01:23:36;;;;;;;15.60;11.93;;;;;;;10.83;100.00;95990.72;5092443;28;20181;-58
2022/04/28 01:26:03;;;;;;;16.80;13.00;;;;;;;10.81;100.00;95984.91;5092008;28;20215;-61
2022/04/28 01:28:33;;;;;;;18.50;12.97;;;;;;;10.76;100.00;95986.06;5093399;28;21073;-61
2022/04/28 01:31:05;;;;;;;16.83;12.53;;;;;;;10.73;100.00;95986.03;5092198;28;20185;-62
2022/04/28 01:33:31;;;;;;;16.20;12.47;;;;;;;10.61;100.00;95989.94;5092287;28;20189;-61
2022/04/28 01:35:56;;;;;;;18.63;13.00;;;;;;;10.62;100.00;95990.72;5092341;28;20192;-61
2022/04/28 01:38:21;;;;;;;15.23;12.13;;;;;;;10.64;100.00;95999.31;5092392;28;20253;-61
2022/04/28 01:40:47;;;;;;;16.33;12.17;;;;;;;10.65;100.00;95989.94;5092202;28;20224;-59
2022/04/28 01:43:12;;;;;;;15.10;11.67;;;;;;;10.62;100.00;95991.50;5092186;28;20268;-60
2022/04/28 01:45:38;;;;;;;19.03;12.07;;;;;;;10.57;100.00;95999.28;5092038;28;20226;-61
2022/04/28 01:48:04;;;;;;;16.33;12.30;;;;;;;10.54;100.00;96000.06;5092398;28;20183;-61
2022/04/28 01:50:29;;;;;;;17.33;12.40;;;;;;;10.44;100.00;95995.34;5092336;28;20208;-61
2022/04/28 01:55:38;;;;;;;15.07;11.23;;;;;;;10.40;100.00;96003.56;5093924;28;20195;-61
2022/04/28 01:58:04;;;;;;;14.23;10.33;;;;;;;10.39;100.00;95998.47;5095472;28;20189;-61
2022/04/28 02:00:29;;;;;;;15.73;11.60;;;;;;;10.38;100.00;95994.94;5095414;28;20185;-61
2022/04/28 02:02:55;;;;;;;15.50;11.77;;;;;;;10.42;100.00;95997.72;5095594;28;20187;-55
2022/04/28 02:05:20;;;;;;;16.57;12.53;;;;;;;10.41;100.00;95996.16;5095201;28;20201;-56
2022/04/28 02:07:46;;;;;;;13.60;10.77;;;;;;;10.33;100.00;96000.00;5095405;28;20196;-56
2022/04/28 02:10:11;;;;;;;14.80;11.17;;;;;;;10.31;100.00;95996.91;5095298;28;20194;-56
2022/04/28 02:12:37;;;;;;;14.97;11.77;;;;;;;10.24;100.00;95996.88;5096409;28;20200;-54
2022/04/28 02:15:03;;;;;;;15.03;12.07;;;;;;;10.18;100.00;95998.41;5095217;28;20254;-56
2022/04/28 02:17:34;;;;;;;18.43;12.17;;;;;;;10.09;100.00;95996.84;5095631;28;20193;-61
2022/04/28 02:20:03;;;;;;;15.00;11.27;;;;;;;10.06;100.00;96003.06;5095727;28;20378;-60
2022/04/28 02:22:29;;;;;;;13.87;10.80;;;;;;;10.09;100.00;96007.75;5094880;28;20212;-61
2022/04/28 02:24:54;;;;;;;16.53;11.83;;;;;;;10.04;100.00;96013.56;5094952;28;20329;-61
2022/04/28 02:27:19;;;;;;;16.83;11.57;;;;;;;10.03;100.00;96011.22;5095397;28;20246;-62
2022/04/28 02:29:45;;;;;;;14.37;11.63;;;;;;;10.00;100.00;96012.75;5095017;28;20209;-61
2022/04/28 02:32:10;;;;;;;14.60;11.30;;;;;;;9.98;100.00;96017.81;5094982;28;20207;-61
2022/04/28 02:34:35;;;;;;;17.33;12.43;;;;;;;9.97;100.00;96015.47;5094784;28;20214;-61
2022/04/28 02:37:01;;;;;;;18.47;12.90;;;;;;;10.02;100.00;96018.59;5095026;28;20192;-58
2022/04/28 02:39:26;;;;;;;18.37;11.33;;;;;;;9.96;100.00;96025.63;5094971;28;20206;-61
2022/04/28 02:41:53;;;;;;;19.70;11.77;;;;;;;9.96;100.00;96019.38;5094771;28;20187;-61
2022/04/28 02:44:19;;;;;;;16.60;12.17;;;;;;;9.97;100.00;96016.25;5094717;28;20237;-61
2022/04/28 02:46:45;;;;;;;13.73;10.83;;;;;;;9.88;100.00;96023.22;5094713;28;20209;-60
2022/04/28 02:49:12;;;;;;;17.73;11.87;;;;;;;9.77;100.00;96017.72;5094668;28;20192;-61
2022/04/28 02:51:38;;;;;;;14.80;10.70;;;;;;;9.77;100.00;96022.41;5094659;28;20293;-61
2022/04/28 02:54:04;;;;;;;14.37;10.77;;;;;;;9.71;100.00;96013.81;5094688;28;20229;-60
2022/04/28 02:56:29;;;;;;;15.57;11.63;;;;;;;9.62;100.00;96018.78;5094760;28;20184;-61
2022/04/28 02:58:55;;;;;;;15.27;11.33;;;;;;;9.63;100.00;96014.94;5094660;28;20193;-61
2022/04/28 03:01:22;;;;;;;15.83;10.67;;;;;;;9.72;100.00;96011.84;5094545;28;20192;-62
2022/04/28 03:03:47;;;;;;;13.50;10.90;;;;;;;9.60;100.00;96007.50;5094442;28;20195;-61
2022/04/28 03:11:41;;;;;;;13.07;10.43;;;;;;;9.54;100.00;96019.94;5096032;28;20191;-61
2022/04/28 03:14:08;;;;;;;14.23;10.70;;;;;;;9.51;100.00;96019.91;5094067;28;20229;-55
2022/04/28 03:16:33;;;;;;;12.93;10.57;;;;;;;9.49;100.00;96017.56;5094795;28;20271;-56
2022/04/28 03:18:58;;;;;;;14.13;10.37;;;;;;;9.50;100.00;96024.56;5094223;28;20208;-56
2022/04/28 03:21:24;;;;;;;12.73;10.40;;;;;;;9.49;100.00;96025.75;5094206;28;20215;-55
2022/04/28 03:23:49;;;;;;;14.23;10.57;;;;;;;9.45;100.00;96022.22;5094226;28;20188;-55
2022/04/28 03:26:14;;;;;;;15.03;11.13;;;;;;;9.47;100.00;96024.56;5093958;28;20295;-56
2022/04/28 03:28:40;;;;;;;14.07;10.97;;;;;;;9.47;100.00;96019.88;5094207;28;20184;-56
2022/04/28 03:31:06;;;;;;;14.97;10.87;;;;;;;9.44;100.00;96020.63;5094079;28;20184;-61
2022/04/28 03:33:32;;;;;;;14.57;10.27;;;;;;;9.45;100.00;96022.22;5094272;28;20184;-56
2022/04/28 03:35:57;;;;;;;15.00;10.50;;;;;;;9.40;100.00;96028.00;5094101;28;20192;-61
2022/04/28 03:38:23;;;;;;;15.93;9.93;;;;;;;9.39;100.00;96031.13;5093789;28;20212;-61
2022/04/28 03:40:48;;;;;;;14.90;10.10;;;;;;;9.36;100.00;96034.63;5093885;28;20206;-60
2022/04/28 03:43:13;;;;;;;13.93;10.37;;;;;;;9.25;100.00;96036.50;5094310;28;20233;-60
2022/04/28 03:45:40;;;;;;;14.33;10.33;;;;;;;9.18;100.00;96037.19;5093950;28;20197;-61
2022/04/28 03:48:09;;;;;;;14.73;10.77;;;;;;;9.23;100.00;96036.06;5093774;28;20222;-60
2022/04/28 03:50:35;;;;;;;17.13;11.00;;;;;;;9.18;100.00;96037.19;5093656;28;20189;-55
2022/04/28 03:53:01;;;;;;;16.17;10.10;;;;;;;9.12;100.00;96041.47;5093681;28;20190;-60
2022/04/28 03:55:26;;;;;;;14.00;10.50;;;;;;;9.25;100.00;96033.78;5093875;28;20192;-62
2022/04/28 03:57:52;;;;;;;16.70;10.93;;;;;;;9.27;100.00;96037.69;5093396;28;20183;-61
2022/04/28 04:00:18;;;;;;;12.70;9.47;;;;;;;9.23;100.00;96046.97;5093599;28;20196;-61
2022/04/28 04:02:44;;;;;;;16.03;10.13;;;;;;;9.19;100.00;96046.16;5093548;28;20177;-60
2022/04/28 04:05:10;;;;;;;13.83;10.40;;;;;;;9.20;100.00;96047.72;5093557;28;20185;-61
2022/04/28 04:07:38;;;;;;;15.00;10.47;;;;;;;9.16;100.00;96050.44;5093401;28;20176;-57
2022/04/28 04:10:08;;;;;;;13.57;9.90;;;;;;;9.22;100.00;96056.31;5093716;28;20180;-60
2022/04/28 04:12:33;;;;;;;15.30;10.40;;;;;;;9.24;100.00;96053.97;5093206;28;20177;-61
2022/04/28 04:14:59;;;;;;;22.23;14.17;;;;;;;9.31;100.00;96065.72;5093498;28;20176;-60
2022/04/28 04:17:24;;;;;;;12.53;9.67;;;;;;;9.53;100.00;96062.00;5093404;28;20184;-61
2022/04/28 04:19:50;;;;;;;12.13;9.70;;;;;;;9.36;100.00;96070.81;5092372;28;20180;-61
2022/04/28 04:22:15;;;;;;;14.77;10.07;;;;;;;9.42;100.00;96066.59;5093174;28;20192;-60
2022/04/28 04:24:41;;;;;;;12.47;9.90;;;;;;;9.56;100.00;96063.16;5093366;28;20200;-61
2022/04/28 04:27:07;;;;;;;15.73;9.70;;;;;;;9.59;100.00;96060.44;5093051;28;20269;-60
2022/04/28 04:29:32;;;;;;;13.33;9.73;;;;;;;9.75;100.00;96063.69;5093253;28;20192;-61
2022/04/28 04:34:42;;;;;;;15.00;10.70;;;;;;;10.14;100.00;96075.59;5094420;28;20261;-61
2022/04/28 04:37:07;;;;;;;18.53;10.70;;;;;;;10.42;100.00;96063.22;5093298;28;20260;-61
2022/04/28 04:39:32;;;;;;;13.70;10.77;;;;;;;10.59;100.00;96068.75;5093217;28;20184;-61
2022/04/28 04:41:58;;;;;;;12.97;9.93;;;;;;;10.74;100.00;96066.84;5093007;28;20191;-61
2022/04/28 04:44:23;;;;;;;14.73;10.37;;;;;;;11.10;100.00;96071.16;5093510;28;20201;-61
2022/04/28 04:46:49;;;;;;;13.00;10.10;;;;;;;11.42;100.00;96074.69;5092933;28;20250;-60
2022/04/28 04:49:14;;;;;;;14.70;10.13;;;;;;;11.83;100.00;96076.63;5093449;28;20194;-61
2022/04/28 04:51:39;;;;;;;13.17;9.70;;;;;;;12.25;100.00;96082.00;5092533;28;20216;-61
2022/04/28 04:54:05;;;;;;;14.17;10.33;;;;;;;12.65;100.00;96080.63;5092943;28;20190;-61
2022/04/28 04:56:30;;;;;;;15.60;9.53;;;;;;;13.20;100.00;96097.97;5092624;28;20201;-61
2022/04/28 04:58:56;;;;;;;15.07;10.10;;;;;;;13.56;100.00;96088.28;5093347;28;20186;-61
2022/04/28 05:01:21;;;;;;;12.53;9.60;;;;;;;13.82;100.00;96098.63;5092634;28;20238;-60
2022/04/28 05:03:46;;;;;;;14.67;9.80;;;;;;;13.94;99.83;96103.59;5093071;28;20199;-60
2022/04/28 05:06:12;;;;;;;11.03;9.30;;;;;;;14.64;96.38;96108.34;5092454;28;20206;-61
2022/04/28 05:08:37;;;;;;;11.40;9.57;;;;;;;14.64;89.46;96108.34;5092455;28;20187;-61
2022/04/28 05:11:02;;;;;;;13.20;8.90;;;;;;;15.01;89.57;96108.25;5092464;28;20217;-60
2022/04/28 05:13:27;;;;;;;12.10;9.63;;;;;;;15.37;85.86;96112.09;5092976;28;20196;-60
2022/04/28 05:15:53;;;;;;;11.53;9.30;;;;;;;15.74;84.05;96114.63;5093239;28;20247;-61
2022/04/28 05:18:18;;;;;;;11.43;9.43;;;;;;;16.06;81.94;96114.88;5092145;28;20180;-60
2022/04/28 05:20:44;;;;;;;13.40;10.47;;;;;;;16.31;80.51;96109.69;5092126;28;20185;-61
2022/04/28 05:23:09;;;;;;;13.73;10.30;;;;;;;16.18;80.40;96122.53;5092335;28;20247;-58
2022/04/28 05:25:34;;;;;;;15.43;11.07;;;;;;;16.74;77.77;96120.72;5092201;28;20285;-60
2022/04/28 05:28:00;;;;;;;13.40;10.77;;;;;;;17.13;76.48;96134.47;5092334;28;20193;-56
2022/04/28 05:30:25;;;;;;;16.53;10.83;;;;;;;17.54;74.95;96132.00;5092350;28;20189;-57
2022/04/28 05:32:50;;;;;;;12.53;10.77;;;;;;;17.79;69.09;96131.41;5095643;28;20180;-56
2022/04/28 05:35:16;;;;;;;13.33;11.03;;;;;;;18.08;65.09;96135.03;5095344;28;20207;-56
2022/04/28 05:37:41;;;;;;;14.03;11.57;;;;;;;18.68;64.18;96135.00;5095671;28;20183;-56
2022/04/28 05:40:07;;;;;;;16.57;11.20;;;;;;;19.09;61.97;96137.03;5095687;28;20231;-55
2022/04/28 05:48:03;;;;;;;15.20;11.50;;;;;;;19.73;58.41;96139.44;5096896;28;20191;-57
2022/04/28 05:50:28;;;;;;;17.00;12.47;;;;;;;20.04;56.71;96134.88;5095342;28;20275;-59
2022/04/28 05:52:54;;;;;;;16.43;11.77;;;;;;;20.34;57.06;96134.28;5095771;28;20259;-57
2022/04/28 05:55:19;;;;;;;13.90;11.50;;;;;;;20.42;55.74;96138.34;5095350;28;20185;-57
2022/04/28 05:57:44;;;;;;;16.97;12.33;;;;;;;20.64;54.77;96144.72;5095424;28;20267;-56
2022/04/28 06:00:10;;;;;;;14.27;12.20;;;;;;;21.17;54.21;96135.28;5095473;28;20185;-61
2022/04/28 06:02:37;;;;;;;14.23;12.07;;;;;;;21.52;52.38;96139.47;5095580;28;20176;-59
2022/04/28 06:05:03;;;;;;;14.80;12.53;;;;;;;21.65;51.45;96145.72;5095456;28;20188;-62
2022/04/28 06:07:28;;;;;;;18.47;14.43;;;;;;;22.12;50.84;96149.00;5095429;28;20220;-59
2022/04/28 06:09:54;;;;;;;19.63;13.93;;;;;;;22.20;50.06;96153.06;5095264;28;20188;-59
2022/04/28 06:12:20;;;;;;;15.73;13.40;;;;;;;22.66;48.52;96156.72;5095241;28;20173;-60
2022/04/28 06:14:45;;;;;;;17.27;14.60;;;;;;;22.72;48.65;96159.66;5095466;28;20176;-60
2022/04/28 06:17:10;;;;;;;15.83;13.87;;;;;;;23.15;48.39;96159.31;5095197;28;20214;-57
2022/04/28 06:19:36;;;;;;;19.63;13.40;;;;;;;23.16;47.14;96155.31;5095086;28;20233;-56
2022/04/28 06:22:01;;;;;;;15.67;13.97;;;;;;;22.46;47.68;96164.69;5094972;28;20180;-54
2022/04/28 06:24:26;;;;;;;15.90;13.83;;;;;;;22.65;46.38;96162.75;5094786;28;20272;-55
2022/04/28 06:26:52;;;;;;;13.53;12.07;;;;;;;22.29;49.88;96166.97;5095161;28;20242;-54
2022/04/28 06:29:17;;;;;;;13.90;12.43;;;;;;;22.44;48.24;96167.94;5094795;28;20195;-54
2022/04/28 06:31:42;;;;;;;16.80;13.30;;;;;;;22.50;48.07;96170.16;5095144;28;20180;-56
2022/04/28 06:34:08;;;;;;;14.37;12.30;;;;;;;23.20;47.09;96178.22;5094679;28;20207;-57
2022/04/28 06:36:34;;;;;;;12.77;11.47;;;;;;;20.45;51.88;96181.88;5094836;28;20188;-57
2022/04/28 06:39:02;;;;;;;13.13;11.83;;;;;;;21.08;53.07;96182.44;5121395;22;20236;-61
2022/04/28 06:41:27;;;;;;;13.43;12.00;;;;;;;21.36;51.33;96178.63;5071309;28;20201;-61
2022/04/28 06:43:53;;;;;;;12.73;11.43;;;;;;;20.98;52.15;96183.56;5070121;28;20192;-60
2022/04/28 06:46:18;;;;;;;12.83;11.17;;;;;;;21.46;50.78;96177.41;5070911;28;20208;-60
2022/04/28 06:48:43;;;;;;;12.70;11.50;;;;;;;21.20;51.86;96181.56;5054248;28;20181;-62
2022/04/28 06:51:09;;;;;;;13.17;11.80;;;;;;;23.17;48.19;96179.16;5071795;28;20188;-60
2022/04/28 06:53:34;;;;;;;12.13;10.93;;;;;;;25.04;43.83;96172.47;5071124;28;20198;-61
2022/04/28 06:55:59;;;;;;;12.27;11.07;;;;;;;25.76;39.83;96188.59;5070920;28;20186;-58
2022/04/28 06:58:25;;;;;;;12.87;11.53;;;;;;;25.95;39.84;96183.53;5070697;28;20273;-69
2022/04/28 07:00:50;;;;;;;13.17;11.77;;;;;;;26.45;38.28;96187.94;5070647;28;20194;-69
2022/04/28 07:03:16;;;;;;;11.80;10.70;;;;;;;26.97;37.05;96179.25;5053792;28;20243;-68
2022/04/28 07:05:42;;;;;;;12.43;10.33;;;;;;;26.23;38.08;96188.38;5071134;28;20205;-68
2022/04/28 07:08:08;;;;;;;11.87;10.70;;;;;;;26.19;38.27;96187.81;5070360;28;20182;-68
2022/04/28 07:10:34;;;;;;;11.63;10.53;;;;;;;25.66;38.46;96187.16;5070266;28;20182;-69
2022/04/28 07:12:59;;;;;;;10.73;9.73;;;;;;;27.44;37.13;96184.41;5054068;28;20193;-58
2022/04/28 07:15:24;;;;;;;10.57;9.57;;;;;;;29.31;33.50;96189.88;5054066;28;20335;-70
2022/04/28 07:17:50;;;;;;;11.27;10.27;;;;;;;29.32;32.68;96185.75;5054209;28;20186;-69
2022/04/28 07:20:15;;;;;;;13.07;10.40;;;;;;;30.29;31.61;96182.84;5070476;28;20190;-69
2022/04/28 07:22:40;;;;;;;14.67;10.23;;;;;;;29.64;31.29;96193.53;5070510;28;20189;-68
2022/04/28 07:25:06;;;;;;;10.43;9.43;;;;;;;29.52;31.79;96191.19;5070726;28;20241;-68
2022/04/28 07:27:31;;;;;;;11.30;10.20;;;;;;;28.83;33.40;96194.72;5053576;28;20228;-69
2022/04/28 07:29:57;;;;;;;10.23;9.17;;;;;;;28.66;33.02;96193.88;5053781;28;20316;-68
2022/04/28 07:32:22;;;;;;;10.70;9.40;;;;;;;30.12;31.79;96196.16;5053709;28;20190;-59
2022/04/28 07:34:47;;;;;;;10.67;9.57;;;;;;;30.97;30.37;96185.81;5053475;28;20204;-45
2022/04/28 07:37:13;;;;;;;10.30;8.50;;;;;;;32.51;27.71;96184.88;5053656;28;20228;-49
2022/04/28 07:39:38;;;;;;;10.33;8.17;;;;;;;32.38;27.72;96190.44;5054272;28;20283;-48
2022/04/28 07:42:03;;;;;;;9.03;8.13;;;;;;;32.60;27.43;96193.06;5053477;28;20186;-45
2022/04/28 07:44:28;;;;;;;8.03;7.43;;;;;;;30.71;28.91;96191.03;5054008;28;20189;-47
2022/04/28 07:46:56;;;;;;;8.70;7.83;;;;;;;30.34;29.64;96184.91;5053429;28;20212;-46
2022/04/28 07:49:21;;;;;;;8.40;7.60;;;;;;;30.90;28.89;96194.81;5054000;28;20208;-64
2022/04/28 07:51:47;;;;;;;8.00;7.20;;;;;;;30.74;28.30;96204.84;5053504;28;20181;-58
2022/04/28 07:54:12;;;;;;;7.23;6.57;;;;;;;29.80;29.97;96189.22;5053361;28;20280;-52
2022/04/28 07:56:37;;;;;;;7.40;6.80;;;;;;;31.54;28.27;96190.72;5053644;28;20186;-56
2022/04/28 07:59:03;;;;;;;7.40;6.57;;;;;;;32.33;26.94;96202.53;5053444;28;20204;-57
2022/04/28 08:01:31;;;;;;;7.10;6.50;;;;;;;29.66;28.93;96204.31;5053689;28;20185;-49
2022/04/28 08:03:56;;;;;;;7.20;6.60;;;;;;;31.38;27.36;96197.25;5054385;28;20240;-53
2022/04/28 08:06:23;;;;;;;6.57;5.97;;;;;;;29.33;28.44;96207.00;5053048;28;20210;-53
2022/04/28 08:08:48;;;;;;;7.40;6.13;;;;;;;28.55;30.22;96202.25;5053065;28;20270;-52
2022/04/28 08:11:13;;;;;;;6.27;5.77;;;;;;;27.64;30.28;96201.19;5053364;28;20218;-54
2022/04/28 08:13:39;;;;;;;7.70;7.00;;;;;;;28.28;30.39;96201.53;5052956;28;20275;-55
2022/04/28 08:16:04;;;;;;;7.30;6.60;;;;;;;28.43;31.47;96209.06;5053202;28;20201;-52
2022/04/28 08:18:30;;;;;;;7.57;6.27;;;;;;;30.90;28.88;96194.81;5052931;28;20214;-54
2022/04/28 08:20:56;;;;;;;7.40;6.70;;;;;;;30.88;28.66;96197.41;5052975;28;20190;-54
2022/04/28 08:23:21;;;;;;;6.37;5.70;;;;;;;26.45;32.25;96211.13;5052750;28;20196;-56
2022/04/28 08:25:47;;;;;;;8.13;6.33;;;;;;;26.72;31.56;96213.56;5052816;28;20238;-62
2022/04/28 08:28:12;;;;;;;6.67;6.07;;;;;;;27.34;30.54;96208.25;5052758;28;20593;-58
2022/04/28 08:30:38;;;;;;;6.33;5.73;;;;;;;29.05;29.01;96208.94;5052537;28;20193;-63
2022/04/28 08:33:04;;;;;;;7.30;6.60;;;;;;;28.51;29.63;96212.97;5053146;28;20193;-64
2022/04/28 08:35:30;;;;;;;6.57;6.00;;;;;;;27.60;30.48;96213.88;5053895;28;20212;-63
2022/04/28 08:37:55;;;;;;;7.00;6.40;;;;;;;26.31;32.63;96211.16;5052295;28;20206;-63
2022/04/28 08:40:21;;;;;;;7.83;5.97;;;;;;;27.08;29.09;96215.84;5052477;28;20185;-62
2022/04/28 08:42:48;;;;;;;6.80;5.50;;;;;;;26.13;29.50;96222.56;5052489;28;20189;-63
2022/04/28 08:45:17;;;;;;;5.50;4.90;;;;;;;25.32;30.02;96222.13;5052441;28;20284;-64
2022/04/28 08:47:43;;;;;;;7.80;5.63;;;;;;;24.51;30.08;96224.69;5052613;28;20182;-55
2022/04/28 08:50:09;;;;;;;5.57;4.97;;;;;;;25.08;29.85;96235.34;5052537;28;20661;-56
2022/04/28 08:52:35;;;;;;;5.70;5.13;;;;;;;25.12;29.13;96249.16;5052397;28;20269;-56
2022/04/28 08:55:02;;;;;;;4.93;4.53;;;;;;;26.88;28.14;96210.22;5052781;28;20192;-56
2022/04/28 08:57:28;;;;;;;6.43;5.10;;;;;;;26.80;27.12;96217.50;5052263;28;20178;-56
2022/04/28 08:59:55;;;;;;;5.40;5.00;;;;;;;26.53;27.42;96223.47;5052779;28;20190;-55
2022/04/28 09:02:27;;;;;;;5.70;5.13;;;;;;;25.18;28.86;96227.66;5052720;28;20196;-54
2022/04/28 09:05:02;;;;;;;5.27;4.77;;;;;;;25.18;29.36;96222.88;5052855;28;20204;-45
2022/04/28 09:07:40;;;;;;;6.63;5.37;;;;;;;24.88;29.50;96231.63;5056052;28;20216;-51
2022/04/28 09:10:27;;;;;;;5.73;5.10;;;;;;;26.35;29.29;96215.31;5056374;28;20199;-56
2022/04/28 09:15:46;;;;;;;5.27;4.87;;;;;;;26.06;28.26;96215.34;5057081;28;20200;-51
2022/04/28 09:18:11;;;;;;;5.13;4.53;;;;;;;27.56;27.16;96219.75;5055728;28;20239;-55
2022/04/28 09:20:37;;;;;;;5.30;4.80;;;;;;;27.29;26.55;96230.66;5055668;28;20190;-48
2022/04/28 09:23:02;;;;;;;4.80;4.40;;;;;;;27.03;26.19;96224.19;5056020;28;20180;-48
2022/04/28 09:25:30;;;;;;;5.30;4.80;;;;;;;28.05;25.33;96219.47;5055419;28;20212;-54
2022/04/28 09:27:56;;;;;;;6.30;5.00;;;;;;;24.73;29.56;96247.56;5055528;28;20185;-56
2022/04/28 09:30:24;;;;;;;6.53;5.70;;;;;;;23.55;31.25;96238.00;5055283;28;20234;-56
2022/04/28 09:32:54;;;;;;;5.50;5.00;;;;;;;22.39;32.82;96238.16;5055238;28;20177;-56
2022/04/28 09:35:19;;;;;;;6.20;5.00;;;;;;;22.48;33.19;96243.78;5055377;28;20213;-55
2022/04/28 09:37:45;;;;;;;5.57;5.00;;;;;;;21.57;33.74;96233.41;5055791;28;20176;-55
2022/04/28 09:42:54;;;;;;;5.47;4.70;;;;;;;21.48;34.35;96233.34;5057048;28;20197;-66
2022/04/28 09:45:22;;;;;;;7.23;5.03;;;;;;;21.43;35.22;96219.25;5055055;28;20190;-66
2022/04/28 09:48:05;;;;;;;5.93;5.43;;;;;;;21.16;34.46;96221.84;5055404;28;20195;-67
2022/04/28 09:50:31;;;;;;;5.07;4.60;;;;;;;20.48;35.46;96242.03;5055779;28;20602;-67
2022/04/28 09:53:02;;;;;;;5.60;5.00;;;;;;;20.20;36.00;96231.06;5055380;28;20596;-66
2022/04/28 09:55:29;;;;;;;5.70;5.00;;;;;;;21.24;35.42;96221.13;5055685;28;20193;-67
2022/04/28 09:57:55;;;;;;;4.50;4.10;;;;;;;21.61;34.68;96219.38;5055055;28;20220;-58
2022/04/28 10:00:21;;;;;;;5.30;4.80;;;;;;;23.20;31.31;96222.81;5054943;28;20202;-62
2022/04/28 10:02:48;;;;;;;5.13;4.40;;;;;;;22.87;32.13;96238.59;5055272;28;20276;-61
2022/04/28 10:05:14;;;;;;;6.60;4.33;;;;;;;23.33;31.97;96231.81;5055301;28;20221;-62
2022/04/28 10:07:40;;;;;;;6.10;5.17;;;;;;;23.72;30.22;96239.22;5054726;28;20189;-64
2022/04/28 10:10:06;;;;;;;5.23;4.73;;;;;;;23.64;30.25;96230.38;5054560;28;20190;-62
2022/04/28 10:12:31;;;;;;;4.90;4.50;;;;;;;23.12;30.48;96227.16;5054665;28;20174;-62
2022/04/28 10:14:58;;;;;;;5.20;4.70;;;;;;;24.40;29.39;96216.81;5055364;28;20193;-63
2022/04/28 10:17:33;;;;;;;4.97;4.47;;;;;;;25.50;27.62;96204.41;5053444;28;20253;-61
2022/04/28 10:20:05;;;;;;;5.13;4.63;;;;;;;24.46;28.90;96222.53;5055122;28;20197;-58
2022/04/28 10:22:36;;;;;;;5.77;3.73;;;;;;;24.82;28.70;96233.53;5054863;28;20186;-58
2022/04/28 10:33:24;;;;;;;6.10;5.20;;;;;;;25.73;27.63;96211.97;5055899;28;20193;-57
2022/04/28 10:35:49;;;;;;;5.47;4.97;;;;;;;25.13;26.89;96217.16;5054903;28;20193;-59
2022/04/28 10:38:34;;;;;;;5.60;4.87;;;;;;;25.62;27.74;96234.16;5071160;28;20197;-62
2022/04/28 10:41:02;;;;;;;6.93;5.50;;;;;;;26.91;26.85;96209.25;5054653;28;20280;-62
2022/04/28 10:43:39;;;;;;;6.40;5.83;;;;;;;26.12;27.23;96224.63;5071724;28;20186;-64
2022/04/28 10:46:04;;;;;;;5.07;4.57;;;;;;;26.37;26.90;96204.38;5054260;28;20202;-62
2022/04/28 10:48:29;;;;;;;7.43;4.40;;;;;;;27.96;25.42;96214.03;5071166;28;20185;-63
2022/04/28 10:51:00;;;;;;;4.50;4.10;;;;;;;26.92;25.25;96215.63;5071735;28;20248;-62
2022/04/28 10:53:27;;;;;;;6.17;5.13;;;;;;;24.92;28.79;96205.00;5054358;28;20217;-64
2022/04/28 10:55:52;;;;;;;6.57;5.93;;;;;;;23.65;30.51;96237.53;5053931;28;20284;-50
2022/04/28 10:58:18;;;;;;;6.30;5.70;;;;;;;23.52;31.60;96238.94;5054236;28;20228;-48
2022/04/28 11:00:53;;;;;;;7.30;6.07;;;;;;;24.85;28.84;96238.94;5071265;28;20190;-47
2022/04/28 11:03:51;;;;;;;6.20;5.57;;;;;;;24.01;29.45;96243.06;5054494;28;20197;-50
2022/04/28 11:06:19;;;;;;;5.57;4.90;;;;;;;23.93;27.79;96232.69;5054255;28;20263;-50
2022/04/28 11:08:47;;;;;;;6.50;5.60;;;;;;;24.62;28.79;96236.91;5070921;28;20217;-46
2022/04/28 11:11:14;;;;;;;7.27;5.13;;;;;;;23.85;29.80;96234.22;5054191;28;20216;-62
2022/04/28 11:13:43;;;;;;;6.10;5.47;;;;;;;24.24;28.70;96224.81;5054602;28;20643;-59
2022/04/28 11:16:10;;;;;;;5.57;4.37;;;;;;;26.21;28.07;96221.69;5037945;28;20304;-63
2022/04/28 11:18:36;;;;;;;7.37;5.10;;;;;;;27.37;26.09;96232.53;5053748;28;20197;-62
2022/04/28 11:21:03;;;;;;;6.30;5.63;;;;;;;25.16;27.96;96246.94;5053562;28;20194;-63
2022/04/28 11:23:40;;;;;;;6.60;5.90;;;;;;;24.28;28.42;96234.56;5054140;28;20197;-62
2022/04/28 11:26:06;;;;;;;8.13;5.67;;;;;;;23.36;29.69;96236.47;5053571;28;20212;-65
2022/04/28 11:28:33;;;;;;;5.67;5.13;;;;;;;24.61;28.22;96226.94;5052962;28;20174;-64
2022/04/28 11:30:59;;;;;;;5.77;4.87;;;;;;;25.18;27.81;96238.84;5053453;28;20194;-67
2022/04/28 11:33:24;;;;;;;6.03;5.43;;;;;;;23.88;28.41;96227.69;5054273;28;20182;-70
2022/04/28 11:35:50;;;;;;;5.90;5.30;;;;;;;23.32;28.64;96230.28;5053373;28;20206;-69
2022/04/28 11:38:27;;;;;;;7.63;5.20;;;;;;;22.58;30.93;96229.88;5053299;28;20189;-67
2022/04/28 11:41:03;;;;;;;5.80;5.30;;;;;;;22.21;30.54;96238.09;5054113;28;20264;-68
2022/04/28 11:43:34;;;;;;;6.00;5.13;;;;;;;21.40;31.47;96225.72;5053525;28;20189;-67
2022/04/28 11:46:00;;;;;;;5.77;4.90;;;;;;;21.07;32.35;96246.78;5053462;28;20233;-64
2022/04/28 11:48:28;;;;;;;5.50;4.97;;;;;;;21.48;32.12;96230.56;5053240;28;20216;-59
2022/04/28 11:50:53;;;;;;;7.07;4.70;;;;;;;20.39;32.77;96239.16;5053342;28;20650;-52